sensor_id;sensor_type;location;lat;lon;timestamp;P1;P2;P0
42002;PMS7003;27693;50.506;30.832;2023-11-22T00:00:15;29.20;28.30;19.50
42002;PMS7003;27693;50.506;30.832;2023-11-22T00:01:18;35.60;27.90;18.80
42002;PMS7003;27693;50.506;30.832;2023-11-22T00:02:21;34.10;29.30;18.10
42002;PMS7003;27693;50.506;30.832;2023-11-22T00:03:24;37.64;28.09;19.27
42002;PMS7003;27693;50.506;30.832;2023-11-22T00:04:26;30.60;25.50;17.80
42002;PMS7003;27693;50.506;30.832;2023-11-22T00:05:29;37.30;26.90;18.60
42002;PMS7003;27693;50.506;30.832;2023-11-22T00:06:31;30.70;23.90;16.30
42002;PMS7003;27693;50.506;30.832;2023-11-22T00:07:34;35.30;29.10;19.80
42002;PMS7003;27693;50.506;30.832;2023-11-22T00:08:36;35.70;28.80;17.90
42002;PMS7003;27693;50.506;30.832;2023-11-22T00:09:39;31.50;28.20;18.40
42002;PMS7003;27693;50.506;30.832;2023-11-22T00:10:41;33.90;28.00;18.60
42002;PMS7003;27693;50.506;30.832;2023-11-22T00:11:44;27.40;26.10;17.40
42002;PMS7003;27693;50.506;30.832;2023-11-22T00:12:47;31.73;27.09;19.36
42002;PMS7003;27693;50.506;30.832;2023-11-22T00:13:49;35.50;27.50;17.50
42002;PMS7003;27693;50.506;30.832;2023-11-22T00:14:56;31.90;27.30;18.80
42002;PMS7003;27693;50.506;30.832;2023-11-22T00:15:58;27.60;23.40;17.10
42002;PMS7003;27693;50.506;30.832;2023-11-22T00:17:01;34.00;27.30;17.20
42002;PMS7003;27693;50.506;30.832;2023-11-22T00:18:04;27.40;25.10;17.10
42002;PMS7003;27693;50.506;30.832;2023-11-22T00:19:06;26.60;21.20;15.60
42002;PMS7003;27693;50.506;30.832;2023-11-22T00:20:09;26.00;21.90;15.70
42002;PMS7003;27693;50.506;30.832;2023-11-22T00:21:12;26.70;19.50;14.10
42002;PMS7003;27693;50.506;30.832;2023-11-22T00:22:15;24.00;21.30;14.00
42002;PMS7003;27693;50.506;30.832;2023-11-22T00:23:18;30.30;24.90;17.50
42002;PMS7003;27693;50.506;30.832;2023-11-22T00:24:20;29.80;25.50;15.70
42002;PMS7003;27693;50.506;30.832;2023-11-22T00:25:23;28.90;23.90;16.40
42002;PMS7003;27693;50.506;30.832;2023-11-22T00:26:25;27.70;21.70;14.00
42002;PMS7003;27693;50.506;30.832;2023-11-22T00:27:30;30.40;26.70;18.80
42002;PMS7003;27693;50.506;30.832;2023-11-22T00:28:35;26.90;25.40;15.90
42002;PMS7003;27693;50.506;30.832;2023-11-22T00:29:38;29.20;23.90;15.90
42002;PMS7003;27693;50.506;30.832;2023-11-22T00:30:41;27.10;23.70;16.20
42002;PMS7003;27693;50.506;30.832;2023-11-22T00:31:43;34.00;25.90;17.30
42002;PMS7003;27693;50.506;30.832;2023-11-22T00:32:47;26.30;23.40;17.20
42002;PMS7003;27693;50.506;30.832;2023-11-22T00:33:50;31.40;24.60;15.70
42002;PMS7003;27693;50.506;30.832;2023-11-22T00:34:53;25.73;21.45;14.36
42002;PMS7003;27693;50.506;30.832;2023-11-22T00:35:56;29.60;23.30;16.60
42002;PMS7003;27693;50.506;30.832;2023-11-22T00:37:00;30.60;25.80;16.50
42002;PMS7003;27693;50.506;30.832;2023-11-22T00:38:02;29.70;24.10;16.90
42002;PMS7003;27693;50.506;30.832;2023-11-22T00:39:05;30.50;23.70;16.40
42002;PMS7003;27693;50.506;30.832;2023-11-22T00:40:09;25.70;20.90;14.60
42002;PMS7003;27693;50.506;30.832;2023-11-22T00:41:12;28.50;23.30;15.60
42002;PMS7003;27693;50.506;30.832;2023-11-22T00:42:16;31.00;22.10;14.70
42002;PMS7003;27693;50.506;30.832;2023-11-22T00:43:20;30.20;24.40;16.90
42002;PMS7003;27693;50.506;30.832;2023-11-22T00:44:22;23.90;21.90;15.80
42002;PMS7003;27693;50.506;30.832;2023-11-22T00:45:26;28.70;26.00;17.20
42002;PMS7003;27693;50.506;30.832;2023-11-22T00:46:28;29.90;25.80;16.30
42002;PMS7003;27693;50.506;30.832;2023-11-22T00:47:32;31.30;22.00;14.00
42002;PMS7003;27693;50.506;30.832;2023-11-22T00:48:35;20.60;18.10;10.10
42002;PMS7003;27693;50.506;30.832;2023-11-22T00:49:37;28.50;22.90;15.60
42002;PMS7003;27693;50.506;30.832;2023-11-22T00:50:41;30.09;24.27;16.45
42002;PMS7003;27693;50.506;30.832;2023-11-22T00:51:43;28.55;23.55;16.36
42002;PMS7003;27693;50.506;30.832;2023-11-22T00:52:47;30.40;24.70;17.30
42002;PMS7003;27693;50.506;30.832;2023-11-22T00:53:51;31.40;23.10;16.00
42002;PMS7003;27693;50.506;30.832;2023-11-22T00:54:53;26.20;23.10;16.80
42002;PMS7003;27693;50.506;30.832;2023-11-22T00:55:56;24.40;20.50;13.40
42002;PMS7003;27693;50.506;30.832;2023-11-22T00:56:58;28.80;21.90;14.80
42002;PMS7003;27693;50.506;30.832;2023-11-22T00:58:02;26.50;21.60;14.90
42002;PMS7003;27693;50.506;30.832;2023-11-22T00:59:08;28.20;23.40;16.00
42002;PMS7003;27693;50.506;30.832;2023-11-22T01:00:12;26.90;22.00;16.50
42002;PMS7003;27693;50.506;30.832;2023-11-22T01:01:20;29.60;22.80;16.00
42002;PMS7003;27693;50.506;30.832;2023-11-22T01:02:30;24.70;21.20;15.40
42002;PMS7003;27693;50.506;30.832;2023-11-22T01:03:32;29.30;23.60;16.60
42002;PMS7003;27693;50.506;30.832;2023-11-22T01:04:36;30.90;21.70;15.60
42002;PMS7003;27693;50.506;30.832;2023-11-22T01:05:39;26.90;22.30;15.00
42002;PMS7003;27693;50.506;30.832;2023-11-22T01:06:41;29.20;21.50;14.30
42002;PMS7003;27693;50.506;30.832;2023-11-22T01:07:43;29.00;24.20;16.90
42002;PMS7003;27693;50.506;30.832;2023-11-22T01:08:46;29.90;24.10;16.80
42002;PMS7003;27693;50.506;30.832;2023-11-22T01:09:49;24.60;20.20;14.80
42002;PMS7003;27693;50.506;30.832;2023-11-22T01:10:52;25.00;21.20;12.50
42002;PMS7003;27693;50.506;30.832;2023-11-22T01:11:54;33.40;23.20;16.10
42002;PMS7003;27693;50.506;30.832;2023-11-22T01:12:56;30.80;24.70;16.10
42002;PMS7003;27693;50.506;30.832;2023-11-22T01:13:59;24.40;22.30;14.80
42002;PMS7003;27693;50.506;30.832;2023-11-22T01:15:01;14.10;11.70;9.20
42002;PMS7003;27693;50.506;30.832;2023-11-22T01:16:06;28.30;24.30;15.80
42002;PMS7003;27693;50.506;30.832;2023-11-22T01:17:10;28.30;24.10;16.40
42002;PMS7003;27693;50.506;30.832;2023-11-22T01:18:13;30.20;22.20;15.80
42002;PMS7003;27693;50.506;30.832;2023-11-22T01:19:15;27.20;23.10;15.50
42002;PMS7003;27693;50.506;30.832;2023-11-22T01:20:18;24.60;22.60;15.40
42002;PMS7003;27693;50.506;30.832;2023-11-22T01:21:22;25.30;21.30;13.90
42002;PMS7003;27693;50.506;30.832;2023-11-22T01:22:25;33.20;25.40;15.40
42002;PMS7003;27693;50.506;30.832;2023-11-22T01:23:28;30.00;23.90;16.90
42002;PMS7003;27693;50.506;30.832;2023-11-22T01:24:30;30.80;24.20;15.60
42002;PMS7003;27693;50.506;30.832;2023-11-22T01:25:33;31.60;25.70;16.60
42002;PMS7003;27693;50.506;30.832;2023-11-22T01:26:36;31.70;22.70;14.90
42002;PMS7003;27693;50.506;30.832;2023-11-22T01:27:40;25.20;21.90;13.50
42002;PMS7003;27693;50.506;30.832;2023-11-22T01:28:43;31.50;24.70;17.80
42002;PMS7003;27693;50.506;30.832;2023-11-22T01:29:46;28.91;23.73;15.45
42002;PMS7003;27693;50.506;30.832;2023-11-22T01:30:49;27.00;20.60;13.80
42002;PMS7003;27693;50.506;30.832;2023-11-22T01:31:51;31.70;24.30;16.20
42002;PMS7003;27693;50.506;30.832;2023-11-22T01:32:54;29.10;23.20;15.20
42002;PMS7003;27693;50.506;30.832;2023-11-22T01:34:00;17.70;14.30;9.80
42002;PMS7003;27693;50.506;30.832;2023-11-22T01:35:03;34.40;25.50;16.30
42002;PMS7003;27693;50.506;30.832;2023-11-22T01:36:08;32.60;26.00;18.60
42002;PMS7003;27693;50.506;30.832;2023-11-22T01:37:10;28.90;23.50;14.60
42002;PMS7003;27693;50.506;30.832;2023-11-22T01:38:14;26.20;22.60;15.90
42002;PMS7003;27693;50.506;30.832;2023-11-22T01:39:16;26.60;23.50;16.60
42002;PMS7003;27693;50.506;30.832;2023-11-22T01:40:20;32.50;24.30;16.60
42002;PMS7003;27693;50.506;30.832;2023-11-22T01:41:22;33.55;25.73;17.00
42002;PMS7003;27693;50.506;30.832;2023-11-22T01:42:26;27.50;24.10;16.30
42002;PMS7003;27693;50.506;30.832;2023-11-22T01:43:29;26.70;24.20;16.00
42002;PMS7003;27693;50.506;30.832;2023-11-22T01:44:32;28.91;23.82;17.36
42002;PMS7003;27693;50.506;30.832;2023-11-22T01:45:34;25.50;23.80;14.80
42002;PMS7003;27693;50.506;30.832;2023-11-22T01:46:38;23.00;20.10;14.80
42002;PMS7003;27693;50.506;30.832;2023-11-22T01:47:41;32.80;27.50;17.00
42002;PMS7003;27693;50.506;30.832;2023-11-22T01:48:45;30.10;24.50;16.60
42002;PMS7003;27693;50.506;30.832;2023-11-22T01:49:48;24.90;20.10;15.30
42002;PMS7003;27693;50.506;30.832;2023-11-22T01:50:50;30.70;22.70;14.10
42002;PMS7003;27693;50.506;30.832;2023-11-22T01:51:53;30.40;26.80;18.00
42002;PMS7003;27693;50.506;30.832;2023-11-22T01:52:57;26.30;23.20;15.90
42002;PMS7003;27693;50.506;30.832;2023-11-22T01:54:00;27.20;22.50;15.70
42002;PMS7003;27693;50.506;30.832;2023-11-22T01:55:03;29.30;24.80;16.20
42002;PMS7003;27693;50.506;30.832;2023-11-22T01:56:07;21.90;18.10;14.90
42002;PMS7003;27693;50.506;30.832;2023-11-22T01:57:11;29.20;24.00;16.10
42002;PMS7003;27693;50.506;30.832;2023-11-22T01:58:14;29.40;25.30;16.10
42002;PMS7003;27693;50.506;30.832;2023-11-22T01:59:17;29.00;24.70;16.70
42002;PMS7003;27693;50.506;30.832;2023-11-22T02:00:20;29.00;23.50;16.00
42002;PMS7003;27693;50.506;30.832;2023-11-22T02:01:26;31.60;21.50;15.90
42002;PMS7003;27693;50.506;30.832;2023-11-22T02:02:30;32.10;24.70;16.30
42002;PMS7003;27693;50.506;30.832;2023-11-22T02:03:34;33.50;23.20;15.80
42002;PMS7003;27693;50.506;30.832;2023-11-22T02:04:37;25.27;21.55;15.36
42002;PMS7003;27693;50.506;30.832;2023-11-22T02:05:43;28.40;21.60;16.80
42002;PMS7003;27693;50.506;30.832;2023-11-22T02:06:44;27.80;24.30;16.50
42002;PMS7003;27693;50.506;30.832;2023-11-22T02:07:47;25.50;23.10;17.10
42002;PMS7003;27693;50.506;30.832;2023-11-22T02:08:51;30.20;24.10;16.80
42002;PMS7003;27693;50.506;30.832;2023-11-22T02:09:54;35.30;26.10;17.70
42002;PMS7003;27693;50.506;30.832;2023-11-22T02:10:58;27.10;21.80;14.70
42002;PMS7003;27693;50.506;30.832;2023-11-22T02:12:03;29.40;23.60;16.80
42002;PMS7003;27693;50.506;30.832;2023-11-22T02:13:06;31.10;25.10;16.60
42002;PMS7003;27693;50.506;30.832;2023-11-22T02:14:09;26.30;21.20;14.60
42002;PMS7003;27693;50.506;30.832;2023-11-22T02:15:11;28.44;23.33;16.33
42002;PMS7003;27693;50.506;30.832;2023-11-22T02:16:15;28.10;22.90;15.50
42002;PMS7003;27693;50.506;30.832;2023-11-22T02:17:19;27.10;24.70;16.60
42002;PMS7003;27693;50.506;30.832;2023-11-22T02:18:23;27.00;21.30;15.90
42002;PMS7003;27693;50.506;30.832;2023-11-22T02:19:25;27.40;23.80;16.00
42002;PMS7003;27693;50.506;30.832;2023-11-22T02:20:30;29.00;22.60;16.10
42002;PMS7003;27693;50.506;30.832;2023-11-22T02:21:33;30.90;22.90;15.90
42002;PMS7003;27693;50.506;30.832;2023-11-22T02:22:45;26.30;23.00;15.00
42002;PMS7003;27693;50.506;30.832;2023-11-22T02:23:47;23.10;20.80;14.90
42002;PMS7003;27693;50.506;30.832;2023-11-22T02:24:51;30.60;25.10;16.00
42002;PMS7003;27693;50.506;30.832;2023-11-22T02:25:54;27.00;22.40;15.50
42002;PMS7003;27693;50.506;30.832;2023-11-22T02:26:56;25.90;22.20;14.50
42002;PMS7003;27693;50.506;30.832;2023-11-22T02:27:58;30.60;25.00;14.60
42002;PMS7003;27693;50.506;30.832;2023-11-22T02:29:01;27.30;21.10;15.10
42002;PMS7003;27693;50.506;30.832;2023-11-22T02:30:06;30.00;21.60;16.70
42002;PMS7003;27693;50.506;30.832;2023-11-22T02:31:09;31.70;24.60;15.80
42002;PMS7003;27693;50.506;30.832;2023-11-22T02:32:12;25.70;21.30;15.50
42002;PMS7003;27693;50.506;30.832;2023-11-22T02:33:14;31.80;22.50;16.10
42002;PMS7003;27693;50.506;30.832;2023-11-22T02:34:17;32.80;23.40;17.00
42002;PMS7003;27693;50.506;30.832;2023-11-22T02:35:19;27.80;21.80;16.70
42002;PMS7003;27693;50.506;30.832;2023-11-22T02:36:22;27.55;23.73;16.09
42002;PMS7003;27693;50.506;30.832;2023-11-22T02:37:26;27.00;23.70;16.30
42002;PMS7003;27693;50.506;30.832;2023-11-22T02:38:29;28.90;24.30;16.30
42002;PMS7003;27693;50.506;30.832;2023-11-22T02:39:45;33.50;21.50;15.30
42002;PMS7003;27693;50.506;30.832;2023-11-22T02:40:50;26.50;23.60;16.50
42002;PMS7003;27693;50.506;30.832;2023-11-22T02:41:53;33.40;23.60;14.90
42002;PMS7003;27693;50.506;30.832;2023-11-22T02:42:55;29.00;22.50;16.00
42002;PMS7003;27693;50.506;30.832;2023-11-22T02:44:02;24.90;22.00;14.70
42002;PMS7003;27693;50.506;30.832;2023-11-22T02:45:07;29.00;23.90;16.20
42002;PMS7003;27693;50.506;30.832;2023-11-22T02:46:11;27.60;21.30;15.10
42002;PMS7003;27693;50.506;30.832;2023-11-22T02:47:14;21.80;20.00;14.80
42002;PMS7003;27693;50.506;30.832;2023-11-22T02:48:17;30.60;24.00;16.50
42002;PMS7003;27693;50.506;30.832;2023-11-22T02:49:20;33.90;25.90;17.80
42002;PMS7003;27693;50.506;30.832;2023-11-22T02:50:22;26.50;22.20;16.00
42002;PMS7003;27693;50.506;30.832;2023-11-22T02:51:25;33.30;23.70;15.30
42002;PMS7003;27693;50.506;30.832;2023-11-22T02:52:28;26.10;21.00;15.40
42002;PMS7003;27693;50.506;30.832;2023-11-22T02:53:30;25.00;23.10;15.90
42002;PMS7003;27693;50.506;30.832;2023-11-22T02:54:33;29.80;21.90;15.50
42002;PMS7003;27693;50.506;30.832;2023-11-22T02:55:35;26.40;24.10;14.70
42002;PMS7003;27693;50.506;30.832;2023-11-22T02:56:38;25.70;23.90;15.30
42002;PMS7003;27693;50.506;30.832;2023-11-22T02:57:40;27.00;23.20;15.20
42002;PMS7003;27693;50.506;30.832;2023-11-22T02:58:43;27.45;23.73;15.64
42002;PMS7003;27693;50.506;30.832;2023-11-22T02:59:46;22.60;20.70;14.50
42002;PMS7003;27693;50.506;30.832;2023-11-22T03:00:49;27.40;21.80;14.70
42002;PMS7003;27693;50.506;30.832;2023-11-22T03:01:52;29.10;21.50;13.60
42002;PMS7003;27693;50.506;30.832;2023-11-22T03:02:54;23.80;19.20;14.20
42002;PMS7003;27693;50.506;30.832;2023-11-22T03:03:57;27.00;22.40;14.70
42002;PMS7003;27693;50.506;30.832;2023-11-22T03:05:02;30.90;24.40;15.70
42002;PMS7003;27693;50.506;30.832;2023-11-22T03:06:05;30.60;24.70;15.20
42002;PMS7003;27693;50.506;30.832;2023-11-22T03:07:07;27.20;22.70;15.30
42002;PMS7003;27693;50.506;30.832;2023-11-22T03:08:10;28.00;20.91;14.82
42002;PMS7003;27693;50.506;30.832;2023-11-22T03:09:14;27.90;23.60;16.80
42002;PMS7003;27693;50.506;30.832;2023-11-22T03:10:17;28.45;23.64;16.73
42002;PMS7003;27693;50.506;30.832;2023-11-22T03:11:20;29.80;23.10;15.50
42002;PMS7003;27693;50.506;30.832;2023-11-22T03:12:24;30.10;22.60;16.30
42002;PMS7003;27693;50.506;30.832;2023-11-22T03:13:27;28.80;24.90;15.80
42002;PMS7003;27693;50.506;30.832;2023-11-22T03:14:29;23.60;18.50;12.10
42002;PMS7003;27693;50.506;30.832;2023-11-22T03:15:32;32.80;23.70;16.70
42002;PMS7003;27693;50.506;30.832;2023-11-22T03:16:37;29.10;24.40;15.90
42002;PMS7003;27693;50.506;30.832;2023-11-22T03:17:41;35.90;26.20;17.50
42002;PMS7003;27693;50.506;30.832;2023-11-22T03:18:43;30.50;23.50;14.40
42002;PMS7003;27693;50.506;30.832;2023-11-22T03:19:45;23.10;19.00;10.70
42002;PMS7003;27693;50.506;30.832;2023-11-22T03:20:48;28.70;24.00;17.80
42002;PMS7003;27693;50.506;30.832;2023-11-22T03:21:52;30.80;23.50;17.20
42002;PMS7003;27693;50.506;30.832;2023-11-22T03:22:54;31.20;23.30;15.30
42002;PMS7003;27693;50.506;30.832;2023-11-22T03:23:57;27.60;24.00;16.40
42002;PMS7003;27693;50.506;30.832;2023-11-22T03:25:02;32.10;27.30;18.50
42002;PMS7003;27693;50.506;30.832;2023-11-22T03:26:06;32.60;25.50;15.50
42002;PMS7003;27693;50.506;30.832;2023-11-22T03:27:08;23.60;19.40;12.30
42002;PMS7003;27693;50.506;30.832;2023-11-22T03:28:13;37.10;29.50;17.20
42002;PMS7003;27693;50.506;30.832;2023-11-22T03:29:16;34.09;26.91;17.36
42002;PMS7003;27693;50.506;30.832;2023-11-22T03:30:20;33.30;29.00;18.60
42002;PMS7003;27693;50.506;30.832;2023-11-22T03:31:24;29.00;26.40;17.70
42002;PMS7003;27693;50.506;30.832;2023-11-22T03:32:26;32.60;25.20;17.40
42002;PMS7003;27693;50.506;30.832;2023-11-22T03:33:31;32.30;24.50;16.20
42002;PMS7003;27693;50.506;30.832;2023-11-22T03:34:33;27.30;23.60;17.70
42002;PMS7003;27693;50.506;30.832;2023-11-22T03:35:35;34.90;28.40;18.70
42002;PMS7003;27693;50.506;30.832;2023-11-22T03:36:42;32.70;26.20;17.80
42002;PMS7003;27693;50.506;30.832;2023-11-22T03:37:44;30.10;24.40;16.30
42002;PMS7003;27693;50.506;30.832;2023-11-22T03:38:47;37.80;24.90;17.80
42002;PMS7003;27693;50.506;30.832;2023-11-22T03:39:49;33.00;25.20;18.00
42002;PMS7003;27693;50.506;30.832;2023-11-22T03:40:52;31.30;26.30;17.70
42002;PMS7003;27693;50.506;30.832;2023-11-22T03:41:55;30.70;27.80;19.40
42002;PMS7003;27693;50.506;30.832;2023-11-22T03:42:58;31.40;25.00;16.80
42002;PMS7003;27693;50.506;30.832;2023-11-22T03:44:00;33.80;26.70;18.50
42002;PMS7003;27693;50.506;30.832;2023-11-22T03:45:04;32.70;26.00;16.70
42002;PMS7003;27693;50.506;30.832;2023-11-22T03:46:08;32.20;28.40;18.80
42002;PMS7003;27693;50.506;30.832;2023-11-22T03:47:15;34.40;27.40;17.60
42002;PMS7003;27693;50.506;30.832;2023-11-22T03:48:21;34.30;29.90;19.70
42002;PMS7003;27693;50.506;30.832;2023-11-22T03:49:26;33.60;27.10;17.70
42002;PMS7003;27693;50.506;30.832;2023-11-22T03:50:29;34.36;27.36;18.64
42002;PMS7003;27693;50.506;30.832;2023-11-22T03:51:32;29.70;23.70;13.50
42002;PMS7003;27693;50.506;30.832;2023-11-22T03:52:35;39.00;30.90;19.40
42002;PMS7003;27693;50.506;30.832;2023-11-22T03:53:38;35.73;29.36;19.64
42002;PMS7003;27693;50.506;30.832;2023-11-22T03:54:40;36.22;26.56;17.11
42002;PMS7003;27693;50.506;30.832;2023-11-22T03:55:42;31.20;26.40;17.50
42002;PMS7003;27693;50.506;30.832;2023-11-22T03:56:44;35.50;28.50;18.60
42002;PMS7003;27693;50.506;30.832;2023-11-22T03:57:49;29.70;25.70;16.40
42002;PMS7003;27693;50.506;30.832;2023-11-22T03:58:52;38.10;29.10;18.90
42002;PMS7003;27693;50.506;30.832;2023-11-22T03:59:54;35.50;30.50;19.10
42002;PMS7003;27693;50.506;30.832;2023-11-22T04:00:57;35.45;31.00;19.27
42002;PMS7003;27693;50.506;30.832;2023-11-22T04:02:00;34.91;27.73;17.64
42002;PMS7003;27693;50.506;30.832;2023-11-22T04:03:02;35.90;29.00;19.70
42002;PMS7003;27693;50.506;30.832;2023-11-22T04:04:05;36.30;27.40;18.30
42002;PMS7003;27693;50.506;30.832;2023-11-22T04:05:08;36.00;24.00;13.80
42002;PMS7003;27693;50.506;30.832;2023-11-22T04:06:18;32.50;25.20;16.80
42002;PMS7003;27693;50.506;30.832;2023-11-22T04:07:18;36.60;27.80;18.10
42002;PMS7003;27693;50.506;30.832;2023-11-22T04:08:21;31.80;25.90;16.50
42002;PMS7003;27693;50.506;30.832;2023-11-22T04:09:23;30.20;25.20;16.90
42002;PMS7003;27693;50.506;30.832;2023-11-22T04:10:25;33.10;29.70;18.80
42002;PMS7003;27693;50.506;30.832;2023-11-22T04:11:28;34.70;24.70;15.00
42002;PMS7003;27693;50.506;30.832;2023-11-22T04:12:31;33.80;27.30;16.60
42002;PMS7003;27693;50.506;30.832;2023-11-22T04:13:36;35.50;26.30;15.30
42002;PMS7003;27693;50.506;30.832;2023-11-22T04:14:39;35.40;27.80;18.00
42002;PMS7003;27693;50.506;30.832;2023-11-22T04:15:41;29.40;24.00;17.00
42002;PMS7003;27693;50.506;30.832;2023-11-22T04:16:45;31.80;25.40;17.70
42002;PMS7003;27693;50.506;30.832;2023-11-22T04:17:48;27.18;23.45;14.82
42002;PMS7003;27693;50.506;30.832;2023-11-22T04:18:53;25.80;23.50;15.50
42002;PMS7003;27693;50.506;30.832;2023-11-22T04:19:55;35.10;27.20;17.30
42002;PMS7003;27693;50.506;30.832;2023-11-22T04:20:59;29.80;24.30;16.30
42002;PMS7003;27693;50.506;30.832;2023-11-22T04:22:03;33.40;27.50;17.60
42002;PMS7003;27693;50.506;30.832;2023-11-22T04:23:05;39.40;26.80;17.20
42002;PMS7003;27693;50.506;30.832;2023-11-22T04:24:08;34.80;27.00;18.30
42002;PMS7003;27693;50.506;30.832;2023-11-22T04:25:11;32.91;25.00;16.36
42002;PMS7003;27693;50.506;30.832;2023-11-22T04:26:20;36.70;26.00;18.00
42002;PMS7003;27693;50.506;30.832;2023-11-22T04:27:23;36.00;28.10;17.40
42002;PMS7003;27693;50.506;30.832;2023-11-22T04:28:26;34.40;27.90;16.80
42002;PMS7003;27693;50.506;30.832;2023-11-22T04:29:29;32.60;28.50;18.20
42002;PMS7003;27693;50.506;30.832;2023-11-22T04:30:32;36.27;29.09;17.64
42002;PMS7003;27693;50.506;30.832;2023-11-22T04:31:35;39.60;30.80;19.20
42002;PMS7003;27693;50.506;30.832;2023-11-22T04:32:37;36.30;25.60;16.60
42002;PMS7003;27693;50.506;30.832;2023-11-22T04:33:40;36.20;26.40;17.90
42002;PMS7003;27693;50.506;30.832;2023-11-22T04:34:42;35.70;28.10;19.00
42002;PMS7003;27693;50.506;30.832;2023-11-22T04:35:44;34.90;27.80;17.40
42002;PMS7003;27693;50.506;30.832;2023-11-22T04:36:48;30.20;24.00;14.00
42002;PMS7003;27693;50.506;30.832;2023-11-22T04:37:50;35.20;27.10;16.90
42002;PMS7003;27693;50.506;30.832;2023-11-22T04:38:53;33.10;25.90;19.00
42002;PMS7003;27693;50.506;30.832;2023-11-22T04:39:56;36.00;29.20;18.30
42002;PMS7003;27693;50.506;30.832;2023-11-22T04:40:58;34.00;27.00;17.70
42002;PMS7003;27693;50.506;30.832;2023-11-22T04:42:01;38.20;30.70;21.70
42002;PMS7003;27693;50.506;30.832;2023-11-22T04:43:03;30.40;26.10;16.00
42002;PMS7003;27693;50.506;30.832;2023-11-22T04:44:05;37.10;30.10;19.40
42002;PMS7003;27693;50.506;30.832;2023-11-22T04:45:09;38.30;32.80;19.80
42002;PMS7003;27693;50.506;30.832;2023-11-22T04:46:12;36.70;24.10;14.10
42002;PMS7003;27693;50.506;30.832;2023-11-22T04:47:14;28.60;26.00;20.10
42002;PMS7003;27693;50.506;30.832;2023-11-22T04:48:16;37.30;28.00;17.90
42002;PMS7003;27693;50.506;30.832;2023-11-22T04:49:20;38.10;30.70;19.90
42002;PMS7003;27693;50.506;30.832;2023-11-22T04:50:23;41.30;33.00;20.20
42002;PMS7003;27693;50.506;30.832;2023-11-22T04:51:28;36.90;28.20;20.10
42002;PMS7003;27693;50.506;30.832;2023-11-22T04:52:31;37.10;33.00;22.00
42002;PMS7003;27693;50.506;30.832;2023-11-22T04:53:34;34.60;30.00;20.50
42002;PMS7003;27693;50.506;30.832;2023-11-22T04:54:36;35.20;29.50;19.30
42002;PMS7003;27693;50.506;30.832;2023-11-22T04:55:39;34.20;28.50;19.70
42002;PMS7003;27693;50.506;30.832;2023-11-22T04:56:41;37.36;31.18;20.09
42002;PMS7003;27693;50.506;30.832;2023-11-22T04:57:43;34.70;30.80;20.60
42002;PMS7003;27693;50.506;30.832;2023-11-22T04:58:46;36.30;28.30;19.80
42002;PMS7003;27693;50.506;30.832;2023-11-22T04:59:48;32.20;21.00;12.20
42002;PMS7003;27693;50.506;30.832;2023-11-22T05:00:51;39.60;29.80;20.30
42002;PMS7003;27693;50.506;30.832;2023-11-22T05:01:53;35.20;29.20;19.10
42002;PMS7003;27693;50.506;30.832;2023-11-22T05:02:55;36.45;30.36;21.00
42002;PMS7003;27693;50.506;30.832;2023-11-22T05:03:58;31.80;27.30;18.30
42002;PMS7003;27693;50.506;30.832;2023-11-22T05:05:01;38.90;29.40;18.90
42002;PMS7003;27693;50.506;30.832;2023-11-22T05:06:04;35.73;28.82;19.36
42002;PMS7003;27693;50.506;30.832;2023-11-22T05:07:07;36.55;29.55;20.18
42002;PMS7003;27693;50.506;30.832;2023-11-22T05:08:09;34.30;29.60;19.60
42002;PMS7003;27693;50.506;30.832;2023-11-22T05:09:12;34.00;27.70;19.30
42002;PMS7003;27693;50.506;30.832;2023-11-22T05:10:23;44.00;31.00;20.60
42002;PMS7003;27693;50.506;30.832;2023-11-22T05:11:26;39.30;31.50;20.90
42002;PMS7003;27693;50.506;30.832;2023-11-22T05:12:28;38.10;31.60;20.50
42002;PMS7003;27693;50.506;30.832;2023-11-22T05:13:30;34.67;28.22;18.67
42002;PMS7003;27693;50.506;30.832;2023-11-22T05:14:33;34.30;30.40;21.20
42002;PMS7003;27693;50.506;30.832;2023-11-22T05:15:35;38.50;31.60;20.80
42002;PMS7003;27693;50.506;30.832;2023-11-22T05:16:38;28.70;26.80;17.70
42002;PMS7003;27693;50.506;30.832;2023-11-22T05:17:41;36.73;32.73;21.82
42002;PMS7003;27693;50.506;30.832;2023-11-22T05:18:43;37.60;32.10;21.00
42002;PMS7003;27693;50.506;30.832;2023-11-22T05:19:46;33.30;29.90;21.10
42002;PMS7003;27693;50.506;30.832;2023-11-22T05:20:48;38.50;31.20;21.40
42002;PMS7003;27693;50.506;30.832;2023-11-22T05:21:51;44.36;33.82;21.55
42002;PMS7003;27693;50.506;30.832;2023-11-22T05:22:53;39.90;32.10;21.30
42002;PMS7003;27693;50.506;30.832;2023-11-22T05:23:55;26.00;23.40;20.20
42002;PMS7003;27693;50.506;30.832;2023-11-22T05:24:58;48.70;33.00;21.40
42002;PMS7003;27693;50.506;30.832;2023-11-22T05:26:00;38.00;31.60;21.80
42002;PMS7003;27693;50.506;30.832;2023-11-22T05:27:03;35.30;25.80;18.90
42002;PMS7003;27693;50.506;30.832;2023-11-22T05:28:05;41.30;34.30;22.30
42002;PMS7003;27693;50.506;30.832;2023-11-22T05:29:08;38.30;30.80;21.60
42002;PMS7003;27693;50.506;30.832;2023-11-22T05:30:13;41.50;35.10;22.70
42002;PMS7003;27693;50.506;30.832;2023-11-22T05:31:17;50.40;34.20;21.50
42002;PMS7003;27693;50.506;30.832;2023-11-22T05:32:20;44.90;33.50;22.30
42002;PMS7003;27693;50.506;30.832;2023-11-22T05:33:22;38.50;33.20;21.80
42002;PMS7003;27693;50.506;30.832;2023-11-22T05:34:26;43.90;34.10;22.50
42002;PMS7003;27693;50.506;30.832;2023-11-22T05:35:29;38.40;32.90;22.70
42002;PMS7003;27693;50.506;30.832;2023-11-22T05:36:31;38.20;31.50;21.30
42002;PMS7003;27693;50.506;30.832;2023-11-22T05:37:34;38.70;30.80;19.10
42002;PMS7003;27693;50.506;30.832;2023-11-22T05:38:36;39.80;34.10;21.40
42002;PMS7003;27693;50.506;30.832;2023-11-22T05:39:39;43.40;34.80;23.00
42002;PMS7003;27693;50.506;30.832;2023-11-22T05:40:41;37.40;30.90;19.50
42002;PMS7003;27693;50.506;30.832;2023-11-22T05:41:44;41.90;32.70;22.90
42002;PMS7003;27693;50.506;30.832;2023-11-22T05:42:47;36.80;31.30;21.80
42002;PMS7003;27693;50.506;30.832;2023-11-22T05:43:49;41.80;32.50;20.20
42002;PMS7003;27693;50.506;30.832;2023-11-22T05:44:52;35.70;30.40;21.50
42002;PMS7003;27693;50.506;30.832;2023-11-22T05:45:54;30.70;25.30;15.80
42002;PMS7003;27693;50.506;30.832;2023-11-22T05:46:57;35.30;28.30;19.60
42002;PMS7003;27693;50.506;30.832;2023-11-22T05:47:59;25.40;21.10;15.20
42002;PMS7003;27693;50.506;30.832;2023-11-22T05:49:02;28.20;24.70;16.80